Time;durP1;ratioP1;P1;durP2;ratioP2;P2;SDS_P1;SDS_P2;PMS_P1;PMS_P2;Temp;Humidity;BMP_temperature;BMP_pressure;BME280_temperature;BME280_humidity;BME280_pressure;Samples;Min_cycle;Max_cycle;Signal;HPM_P1;HPM_P2
2022/02/14 00:00:40;;;;;;;13.80;5.05;;;;;;;9.97;100.00;99710.59;5071216;28;20135;-30
2022/02/14 00:03:11;;;;;;;12.57;5.10;;;;;;;9.95;100.00;99704.50;5070497;28;20093;-30
2022/02/14 00:05:40;;;;;;;11.65;4.95;;;;;;;9.95;100.00;99701.72;5071022;28;20482;-30
2022/02/14 00:08:08;;;;;;;16.30;5.78;;;;;;;9.91;100.00;99689.56;5071356;28;20032;-29
2022/02/14 00:10:37;;;;;;;10.57;5.22;;;;;;;9.89;100.00;99691.84;5070387;28;20443;-36
2022/02/14 00:13:05;;;;;;;13.20;4.85;;;;;;;9.89;100.00;99703.00;5071218;28;20049;-32
2022/02/14 00:15:34;;;;;;;13.50;5.20;;;;;;;9.83;100.00;99698.72;5070907;28;20527;-30
2022/02/14 00:18:01;;;;;;;11.13;4.65;;;;;;;9.83;100.00;99661.66;5070299;28;20520;-32
2022/02/14 00:20:30;;;;;;;13.13;5.32;;;;;;;9.81;100.00;99681.50;5070837;28;20040;-30
2022/02/14 00:22:59;;;;;;;9.30;4.97;;;;;;;9.82;100.00;99673.97;5071104;28;20508;-30
2022/02/14 00:25:27;;;;;;;12.38;4.78;;;;;;;9.82;100.00;99674.78;5070023;28;20083;-29
2022/02/14 00:27:57;;;;;;;10.65;4.90;;;;;;;9.82;100.00;99663.63;5071169;28;20048;-29
2022/02/14 00:30:25;;;;;;;12.95;5.15;;;;;;;9.83;100.00;99665.28;5071008;28;20095;-30
2022/02/14 00:32:53;;;;;;;13.48;4.82;;;;;;;9.85;100.00;99664.97;5070691;28;20071;-30
2022/02/14 00:35:20;;;;;;;13.60;5.13;;;;;;;9.87;100.00;99659.88;5070972;28;20058;-30
2022/02/14 00:37:49;;;;;;;10.10;5.13;;;;;;;9.88;100.00;99659.56;5070140;28;20056;-31
2022/02/14 00:40:21;;;;;;;13.23;4.90;;;;;;;9.93;100.00;99653.03;5070194;28;20044;-30
2022/02/14 00:42:50;;;;;;;11.68;4.95;;;;;;;9.97;100.00;99654.84;5070754;28;20074;-32
2022/02/14 00:45:17;;;;;;;10.25;5.00;;;;;;;10.01;100.00;99635.47;5070051;28;20041;-30
2022/02/14 00:47:45;;;;;;;11.77;4.72;;;;;;;10.06;100.00;99643.69;5070901;28;20052;-29
2022/02/14 00:50:13;;;;;;;12.63;4.43;;;;;;;10.08;100.00;99635.00;5070918;28;20375;-29
2022/02/14 00:52:41;;;;;;;12.55;5.00;;;;;;;10.12;100.00;99599.78;5069980;28;20132;-30
2022/02/14 00:55:11;;;;;;;8.48;4.15;;;;;;;10.12;100.00;99616.50;5070585;28;20052;-29
2022/02/14 00:57:40;;;;;;;10.57;4.68;;;;;;;10.15;100.00;99613.06;5070756;28;20051;-29
2022/02/14 01:00:11;;;;;;;13.82;4.78;;;;;;;10.15;100.00;99627.81;5069679;28;20040;-29
2022/02/14 01:02:39;;;;;;;12.45;4.38;;;;;;;10.15;100.00;99615.84;5070652;28;20510;-29
2022/02/14 01:05:09;;;;;;;13.20;4.80;;;;;;;10.17;100.00;99602.41;5070593;28;20052;-30
2022/02/14 01:07:37;;;;;;;10.77;4.72;;;;;;;10.21;100.00;99595.03;5069609;28;20041;-30
2022/02/14 01:10:06;;;;;;;12.27;4.20;;;;;;;10.23;100.00;99601.09;5070455;28;20054;-30
2022/02/14 01:12:34;;;;;;;11.50;4.30;;;;;;;10.26;100.00;99592.09;5070657;28;20049;-30
2022/02/14 01:15:05;;;;;;;10.68;4.80;;;;;;;10.28;100.00;99589.78;5070202;28;20577;-31
2022/02/14 01:17:34;;;;;;;9.18;3.83;;;;;;;10.30;100.00;99579.97;5070444;28;20131;-32
2022/02/14 01:20:02;;;;;;;10.73;3.85;;;;;;;10.32;100.00;99574.06;5069710;28;20048;-31
2022/02/14 01:22:30;;;;;;;9.15;4.38;;;;;;;10.32;100.00;99572.09;5070330;28;20155;-31
2022/02/14 01:24:58;;;;;;;10.90;3.92;;;;;;;10.36;100.00;99572.25;5070774;28;20044;-30
2022/02/14 01:27:26;;;;;;;8.85;4.00;;;;;;;10.42;100.00;99570.91;5069382;28;20063;-29
2022/02/14 01:29:54;;;;;;;10.77;4.38;;;;;;;10.45;100.00;99564.69;5070663;28;20052;-30
2022/02/14 01:32:24;;;;;;;9.50;4.10;;;;;;;10.48;100.00;99550.09;5070368;28;20052;-30
2022/02/14 01:34:52;;;;;;;8.27;3.58;;;;;;;10.49;100.00;99535.00;5069429;28;20044;-29
2022/02/14 01:37:20;;;;;;;10.52;3.78;;;;;;;10.50;100.00;99550.56;5071600;28;20051;-32
2022/02/14 01:39:48;;;;;;;10.23;3.78;;;;;;;10.57;100.00;99552.88;5073872;28;20064;-31
2022/02/14 01:42:17;;;;;;;10.73;3.65;;;;;;;10.64;100.00;99542.81;5073201;28;20044;-30
2022/02/14 01:44:47;;;;;;;10.15;3.75;;;;;;;10.70;100.00;99530.34;5073853;28;20083;-28
2022/02/14 01:47:17;;;;;;;9.13;3.55;;;;;;;10.75;100.00;99515.41;5073600;28;20513;-29
2022/02/14 01:49:47;;;;;;;11.90;3.70;;;;;;;10.79;100.00;99512.78;5073046;28;20047;-33
2022/02/14 01:52:16;;;;;;;9.80;3.70;;;;;;;10.81;100.00;99511.25;5073753;28;20052;-31
2022/02/14 01:54:45;;;;;;;8.18;3.95;;;;;;;10.82;100.00;99509.28;5073774;28;20046;-31
2022/02/14 01:57:14;;;;;;;11.40;3.72;;;;;;;10.83;100.00;99510.94;5072653;28;20040;-32
2022/02/14 01:59:43;;;;;;;8.70;3.47;;;;;;;10.84;100.00;99523.72;5073307;28;20040;-33
2022/02/14 02:02:12;;;;;;;10.93;4.05;;;;;;;10.85;100.00;99500.25;5072885;28;20063;-32
2022/02/14 02:04:43;;;;;;;7.95;3.30;;;;;;;10.91;100.00;99485.78;5073999;28;20132;-29
2022/02/14 02:07:14;;;;;;;9.53;3.50;;;;;;;10.90;100.00;99489.72;5073518;28;20474;-30
2022/02/14 02:09:43;;;;;;;12.35;3.53;;;;;;;10.93;100.00;99493.84;5072487;28;20063;-33
2022/02/14 02:12:23;;;;;;;14.50;4.13;;;;;;;10.92;100.00;99476.25;5073181;28;20412;-30
2022/02/14 02:14:51;;;;;;;7.05;3.85;;;;;;;10.96;100.00;99476.41;5073405;28;20050;-31
2022/02/14 02:17:19;;;;;;;10.82;3.67;;;;;;;10.97;100.00;99462.13;5072420;28;20135;-31
2022/02/14 02:19:47;;;;;;;7.10;3.53;;;;;;;11.02;100.00;99463.88;5073297;28;20420;-30
2022/02/14 02:22:16;;;;;;;10.00;3.95;;;;;;;11.04;99.49;99458.78;5073803;28;20055;-31
2022/02/14 02:24:50;;;;;;;10.82;4.35;;;;;;;11.05;99.34;99449.25;5072075;28;20502;-30
2022/02/14 02:27:19;;;;;;;10.05;4.05;;;;;;;11.07;99.01;99454.50;5073514;28;20512;-29
2022/02/14 02:29:46;;;;;;;12.60;4.45;;;;;;;11.09;99.05;99435.47;5072391;28;20657;-31
2022/02/14 02:32:15;;;;;;;8.35;3.90;;;;;;;11.09;97.96;99446.63;5072513;28;20496;-29
2022/02/14 02:34:44;;;;;;;10.45;4.30;;;;;;;11.08;98.14;99443.00;5072682;28;20485;-29
2022/02/14 02:37:14;;;;;;;8.75;4.38;;;;;;;11.11;97.93;99439.56;5071938;28;20045;-30
2022/02/14 02:39:43;;;;;;;9.77;4.07;;;;;;;11.11;97.75;99431.19;5073111;28;20106;-30
2022/02/14 02:42:14;;;;;;;11.25;4.60;;;;;;;11.11;97.13;99430.34;5072723;28;20037;-29
2022/02/14 02:44:44;;;;;;;9.15;3.83;;;;;;;11.13;97.03;99426.06;5072147;28;20473;-30
2022/02/14 02:47:13;;;;;;;12.85;4.10;;;;;;;11.15;96.47;99428.53;5072449;28;20504;-30
2022/02/14 02:49:43;;;;;;;9.38;4.10;;;;;;;11.17;96.03;99423.44;5072550;28;20049;-29
2022/02/14 02:52:15;;;;;;;8.60;4.10;;;;;;;11.19;96.08;99416.31;5071888;28;20044;-30
2022/02/14 02:54:44;;;;;;;11.60;4.10;;;;;;;11.19;95.60;99421.91;5072662;28;20045;-31
2022/02/14 02:57:13;;;;;;;8.07;3.45;;;;;;;11.26;95.78;99419.41;5072303;28;20072;-31
2022/02/14 02:59:42;;;;;;;12.70;4.30;;;;;;;11.24;95.51;99418.09;5062577;28;20083;-31
2022/02/14 03:02:10;;;;;;;10.15;3.97;;;;;;;11.25;95.55;99406.59;5072217;28;20503;-30
2022/02/14 03:04:38;;;;;;;7.85;3.15;;;;;;;11.28;94.59;99400.34;5072423;28;20402;-31
2022/02/14 03:07:06;;;;;;;9.70;3.60;;;;;;;11.36;94.60;99398.66;5071468;28;20057;-30
2022/02/14 03:09:34;;;;;;;8.70;3.70;;;;;;;11.36;94.06;99393.06;5072110;28;20048;-31
2022/02/14 03:12:02;;;;;;;8.00;3.30;;;;;;;11.39;94.23;99395.97;5071868;28;20505;-31
2022/02/14 03:14:31;;;;;;;9.02;3.45;;;;;;;11.38;93.87;99379.59;5071343;28;20040;-30
2022/02/14 03:16:59;;;;;;;8.60;3.47;;;;;;;11.40;93.23;99386.44;5059513;28;20044;-32
2022/02/14 03:19:27;;;;;;;9.82;3.53;;;;;;;11.45;93.33;99377.03;5071255;28;20504;-31
2022/02/14 03:21:55;;;;;;;9.07;3.33;;;;;;;11.45;93.21;99363.06;5072076;28;20139;-33
2022/02/14 03:24:23;;;;;;;10.43;3.30;;;;;;;11.44;93.05;99374.59;5072145;28;20036;-30
2022/02/14 03:26:51;;;;;;;8.30;3.10;;;;;;;11.46;92.69;99361.09;5070983;28;20570;-31
2022/02/14 03:29:19;;;;;;;10.75;3.58;;;;;;;11.48;92.62;99381.94;5071638;28;20080;-31
2022/02/14 03:31:48;;;;;;;7.25;3.00;;;;;;;11.51;93.52;99352.53;5071760;28;20049;-30
2022/02/14 03:34:16;;;;;;;9.40;3.17;;;;;;;11.52;93.83;99362.53;5071659;28;20049;-31
2022/02/14 03:36:44;;;;;;;9.50;3.20;;;;;;;11.45;94.86;99356.66;5071557;28;20136;-31
2022/02/14 03:39:12;;;;;;;8.95;3.20;;;;;;;11.43;96.03;99348.63;5071877;28;20480;-29
2022/02/14 03:41:40;;;;;;;8.02;3.00;;;;;;;11.39;95.84;99351.28;5069339;28;20412;-33
2022/02/14 03:44:07;;;;;;;7.07;3.38;;;;;;;11.35;96.22;99343.97;5071720;28;20083;-31
2022/02/14 03:46:35;;;;;;;9.38;3.28;;;;;;;11.32;96.21;99351.03;5071510;28;20489;-31
2022/02/14 03:49:05;;;;;;;6.20;2.72;;;;;;;11.36;95.53;99346.41;5070912;28;20048;-32
2022/02/14 03:51:33;;;;;;;9.27;2.78;;;;;;;11.37;95.05;99347.22;5070536;28;20052;-29
2022/02/14 03:54:01;;;;;;;10.07;2.80;;;;;;;11.37;94.61;99333.25;5071372;28;20071;-30
2022/02/14 03:56:29;;;;;;;11.57;3.00;;;;;;;11.41;93.92;99320.22;5070401;28;20075;-30
2022/02/14 03:58:56;;;;;;;12.15;2.90;;;;;;;11.40;93.16;99305.44;5071468;28;20051;-31
2022/02/14 04:01:24;;;;;;;10.20;2.65;;;;;;;11.44;93.36;99321.53;5070872;28;20048;-32
2022/02/14 04:03:52;;;;;;;8.68;2.70;;;;;;;11.44;92.69;99310.34;5071132;28;20048;-30
2022/02/14 04:06:21;;;;;;;7.53;2.75;;;;;;;11.47;92.41;99306.88;5071103;28;20428;-33
2022/02/14 04:08:49;;;;;;;7.45;2.85;;;;;;;11.45;92.32;99293.25;5070402;28;20470;-30
2022/02/14 04:11:17;;;;;;;9.27;2.60;;;;;;;11.47;92.12;99301.28;5071418;28;20064;-30
2022/02/14 04:13:45;;;;;;;8.70;2.92;;;;;;;11.45;91.58;99301.63;5071418;28;20436;-30
2022/02/14 04:16:12;;;;;;;6.03;2.20;;;;;;;11.46;91.92;99311.63;5070492;28;20079;-30
2022/02/14 04:18:40;;;;;;;10.05;2.53;;;;;;;11.45;91.81;99309.19;5070767;28;20036;-28
2022/02/14 04:21:08;;;;;;;12.02;2.85;;;;;;;11.46;91.75;99294.06;5060455;28;20075;-30
2022/02/14 04:23:38;;;;;;;11.13;3.08;;;;;;;11.45;91.85;99325.94;5068773;28;20470;-31
2022/02/14 04:26:05;;;;;;;9.18;2.55;;;;;;;11.43;91.93;99291.94;5071222;28;20131;-30
2022/02/14 04:28:33;;;;;;;9.07;2.75;;;;;;;11.43;91.88;99300.34;5070723;28;20052;-31
2022/02/14 04:31:01;;;;;;;9.23;3.00;;;;;;;11.38;91.99;99301.38;5066984;28;20064;-33
2022/02/14 04:33:31;;;;;;;5.55;2.38;;;;;;;11.40;92.12;99282.28;5070686;28;20519;-33
2022/02/14 04:35:58;;;;;;;8.50;2.42;;;;;;;11.37;92.15;99286.59;5070465;28;20060;-31
2022/02/14 04:38:26;;;;;;;8.68;2.65;;;;;;;11.34;92.43;99283.69;5068909;28;20076;-30
2022/02/14 04:40:55;;;;;;;6.40;2.28;;;;;;;11.31;92.71;99275.97;5070595;28;20421;-30
2022/02/14 04:43:23;;;;;;;8.50;2.42;;;;;;;11.27;92.84;99281.44;5070942;28;20056;-31
2022/02/14 04:45:51;;;;;;;6.82;2.33;;;;;;;11.26;92.98;99278.97;5070188;28;20053;-29
2022/02/14 04:48:18;;;;;;;12.10;2.95;;;;;;;11.22;93.21;99276.03;5061561;28;20045;-30
2022/02/14 04:50:46;;;;;;;11.02;2.38;;;;;;;11.25;93.44;99282.91;5070221;28;20043;-32
2022/02/14 04:53:14;;;;;;;8.38;2.55;;;;;;;11.23;93.15;99276.88;5070933;28;20044;-33
2022/02/14 04:55:41;;;;;;;5.93;2.40;;;;;;;11.25;93.28;99288.50;5070647;28;20503;-30
2022/02/14 04:58:10;;;;;;;6.50;2.45;;;;;;;11.25;93.23;99261.41;5069784;28;20032;-30
2022/02/14 05:00:40;;;;;;;11.32;2.60;;;;;;;11.25;93.33;99280.94;5069047;28;20493;-30
2022/02/14 05:03:07;;;;;;;8.38;2.50;;;;;;;11.24;93.49;99270.94;5070590;28;20052;-30
2022/02/14 05:05:35;;;;;;;9.38;2.20;;;;;;;11.26;93.42;99256.63;5058820;28;20044;-31
2022/02/14 05:08:03;;;;;;;5.95;2.47;;;;;;;11.25;93.34;99267.00;5070621;28;20119;-31
2022/02/14 05:10:31;;;;;;;6.65;2.30;;;;;;;11.25;93.94;99253.03;5070294;28;20063;-30
2022/02/14 05:12:58;;;;;;;7.78;2.65;;;;;;;11.25;93.90;99253.03;5072146;28;20503;-31
2022/02/14 05:15:28;;;;;;;11.73;2.60;;;;;;;11.26;94.01;99274.19;5074144;28;20049;-30
2022/02/14 05:17:55;;;;;;;6.20;2.10;;;;;;;11.23;94.53;99260.09;5074702;28;20071;-30
2022/02/14 05:20:23;;;;;;;10.15;2.65;;;;;;;11.19;94.81;99250.81;5073443;28;20530;-31
2022/02/14 05:22:51;;;;;;;11.07;2.70;;;;;;;11.19;94.81;99267.56;5074970;28;20079;-30
2022/02/14 05:25:19;;;;;;;7.10;2.30;;;;;;;11.18;94.76;99277.09;5073703;28;20064;-33
2022/02/14 05:27:46;;;;;;;6.30;2.13;;;;;;;11.15;95.03;99255.44;5073558;28;20052;-30
2022/02/14 05:30:14;;;;;;;9.10;2.40;;;;;;;11.11;95.35;99263.69;5074090;28;20140;-33
2022/02/14 05:32:43;;;;;;;8.63;2.20;;;;;;;11.07;95.55;99287.84;5073966;28;20036;-30
2022/02/14 05:35:11;;;;;;;8.80;2.45;;;;;;;11.00;96.06;99274.41;5073307;28;20493;-31
2022/02/14 05:37:38;;;;;;;10.48;2.85;;;;;;;11.04;95.94;99271.78;5073568;28;20407;-30
2022/02/14 05:40:08;;;;;;;7.68;2.33;;;;;;;11.01;96.38;99276.06;5073070;28;20051;-29
2022/02/14 05:42:35;;;;;;;8.95;3.20;;;;;;;10.94;96.96;99281.38;5073514;28;20062;-30
2022/02/14 05:45:04;;;;;;;5.25;2.50;;;;;;;10.97;97.04;99285.47;5073637;28;20044;-31
2022/02/14 05:47:33;;;;;;;9.35;2.47;;;;;;;10.94;97.26;99305.69;5072999;28;20043;-32
2022/02/14 05:50:02;;;;;;;9.60;2.25;;;;;;;10.94;97.71;99288.94;5073658;28;20060;-30
2022/02/14 05:52:30;;;;;;;8.98;2.90;;;;;;;10.89;98.25;99289.13;5073375;28;20505;-30
2022/02/14 05:54:57;;;;;;;12.38;2.83;;;;;;;10.86;98.62;99289.81;5072767;28;20090;-30
2022/02/14 05:57:25;;;;;;;10.98;2.65;;;;;;;10.77;99.91;99336.50;5073292;28;20106;-32
2022/02/14 05:59:53;;;;;;;15.32;3.42;;;;;;;10.67;100.00;99309.81;5073703;28;20045;-31
2022/02/14 06:02:20;;;;;;;10.52;2.90;;;;;;;10.57;100.00;99330.53;5072629;28;20056;-29
2022/02/14 06:04:48;;;;;;;12.18;3.60;;;;;;;10.51;100.00;99331.88;5073600;28;20050;-30
2022/02/14 06:07:18;;;;;;;12.95;3.63;;;;;;;10.38;100.00;99332.13;5073580;28;20051;-30
2022/02/14 06:09:46;;;;;;;14.82;3.58;;;;;;;10.22;100.00;99312.31;5061203;28;20049;-29
2022/02/14 06:12:13;;;;;;;14.95;3.30;;;;;;;10.10;100.00;99334.50;5072232;28;20044;-29
2022/02/14 06:14:41;;;;;;;18.88;3.40;;;;;;;9.96;100.00;99337.50;5072180;28;20056;-29
2022/02/14 06:17:09;;;;;;;15.00;3.60;;;;;;;9.91;100.00;99330.13;5072412;28;20424;-30
2022/02/14 06:19:36;;;;;;;13.52;3.33;;;;;;;9.83;100.00;99355.22;5069493;28;20051;-30
2022/02/14 06:22:04;;;;;;;15.98;3.38;;;;;;;9.78;100.00;99350.66;5073200;28;20489;-30
2022/02/14 06:24:33;;;;;;;16.80;3.58;;;;;;;9.72;100.00;99357.53;5071796;28;20048;-29
2022/02/14 06:27:01;;;;;;;19.23;4.07;;;;;;;9.65;100.00;99348.84;5073333;28;20056;-31
2022/02/14 06:29:28;;;;;;;17.33;3.40;;;;;;;9.57;100.00;99347.75;5071973;28;20509;-28
2022/02/14 06:31:56;;;;;;;15.38;3.80;;;;;;;9.52;100.00;99358.22;5073114;28;20048;-29
2022/02/14 06:34:24;;;;;;;17.75;4.30;;;;;;;9.46;100.00;99353.97;5072885;28;20435;-29
2022/02/14 06:36:52;;;;;;;18.02;3.45;;;;;;;9.39;100.00;99370.34;5071916;28;20406;-30
2022/02/14 06:39:19;;;;;;;15.65;3.70;;;;;;;9.31;100.00;99370.03;5072746;28;20059;-34
2022/02/14 06:41:49;;;;;;;15.77;3.10;;;;;;;9.28;100.00;99384.59;5072815;28;20608;-31
2022/02/14 06:44:18;;;;;;;17.13;3.80;;;;;;;9.25;100.00;99385.22;5071902;28;20127;-29
2022/02/14 06:46:46;;;;;;;21.52;3.95;;;;;;;9.14;100.00;99405.38;5072675;28;20052;-29
2022/02/14 06:49:13;;;;;;;18.50;3.92;;;;;;;9.04;100.00;99406.50;5072457;28;20048;-30
2022/02/14 06:51:41;;;;;;;20.25;3.72;;;;;;;8.99;100.00;99423.34;5071813;28;20044;-30
2022/02/14 06:54:09;;;;;;;15.57;3.38;;;;;;;8.94;100.00;99426.28;5072362;28;20052;-29
2022/02/14 06:56:37;;;;;;;23.17;4.38;;;;;;;8.89;100.00;99418.91;5072152;28;20051;-29
2022/02/14 06:59:06;;;;;;;19.60;3.33;;;;;;;8.85;100.00;99422.66;5071150;28;20390;-29
2022/02/14 07:01:34;;;;;;;16.40;3.63;;;;;;;8.78;100.00;99433.44;5071923;28;20055;-30
2022/02/14 07:04:01;;;;;;;25.63;3.90;;;;;;;8.73;100.00;99433.59;5071787;28;20544;-31
2022/02/14 07:06:29;;;;;;;22.13;3.85;;;;;;;8.66;100.00;99444.34;5071123;28;20045;-30
2022/02/14 07:08:57;;;;;;;25.50;3.92;;;;;;;8.61;100.00;99448.06;5071474;28;20044;-29
2022/02/14 07:11:25;;;;;;;23.60;4.05;;;;;;;8.51;100.00;99446.41;5071642;28;20138;-31
2022/02/14 07:13:53;;;;;;;18.25;3.85;;;;;;;8.39;100.00;99462.06;5071950;28;20098;-30
2022/02/14 07:16:22;;;;;;;30.88;4.45;;;;;;;8.29;100.00;99463.09;5071801;28;20051;-31
2022/02/14 07:18:50;;;;;;;25.95;3.58;;;;;;;8.21;100.00;99463.84;5071380;28;20053;-31
2022/02/14 07:21:20;;;;;;;23.27;3.58;;;;;;;8.15;100.00;99456.81;5071928;28;20052;-32
2022/02/14 07:23:50;;;;;;;22.38;3.22;;;;;;;8.13;100.00;99470.19;5070963;28;20493;-31
2022/02/14 07:26:18;;;;;;;22.90;3.20;;;;;;;8.05;100.00;99479.28;5070871;28;20047;-31
2022/02/14 07:28:48;;;;;;;19.17;2.97;;;;;;;8.03;100.00;99487.13;5071669;28;20161;-30
2022/02/14 07:31:16;;;;;;;17.55;3.30;;;;;;;8.02;100.00;99496.59;5071693;28;20057;-29
2022/02/14 07:33:45;;;;;;;17.95;2.95;;;;;;;8.01;100.00;99492.16;5070709;28;20133;-31
2022/02/14 07:36:13;;;;;;;14.30;2.38;;;;;;;8.04;100.00;99505.41;5070929;28;20051;-29
2022/02/14 07:38:41;;;;;;;23.23;3.40;;;;;;;8.01;100.00;99506.88;5071389;28;20041;-29
2022/02/14 07:41:09;;;;;;;17.75;3.22;;;;;;;8.01;100.00;99517.16;5070542;28;20055;-28
2022/02/14 07:43:36;;;;;;;14.70;2.70;;;;;;;8.00;100.00;99529.41;5071190;28;20040;-29
2022/02/14 07:46:04;;;;;;;18.92;2.83;;;;;;;8.00;100.00;99526.63;5071051;28;20515;-30
2022/02/14 07:48:34;;;;;;;16.55;2.53;;;;;;;7.99;100.00;99536.13;5070637;28;20056;-30
2022/02/14 07:51:03;;;;;;;17.67;2.65;;;;;;;7.99;100.00;99548.06;5071090;28;20058;-30
2022/02/14 07:53:30;;;;;;;17.02;3.03;;;;;;;7.96;100.00;99554.25;5071246;28;20420;-30
2022/02/14 07:55:58;;;;;;;16.88;2.47;;;;;;;7.93;100.00;99555.69;5070465;28;20055;-30
2022/02/14 07:58:26;;;;;;;15.23;2.35;;;;;;;7.94;100.00;99562.88;5071501;28;20425;-30
2022/02/14 08:00:54;;;;;;;12.18;2.60;;;;;;;7.95;100.00;99575.63;5070263;28;20084;-29
2022/02/14 08:03:21;;;;;;;17.00;2.42;;;;;;;7.94;100.00;99571.22;5071041;28;20531;-30
2022/02/14 08:05:50;;;;;;;22.25;2.92;;;;;;;7.99;100.00;99577.78;5070438;28;20048;-30
2022/02/14 08:08:19;;;;;;;17.60;2.50;;;;;;;8.01;100.00;99579.09;5070269;28;20967;-30
2022/02/14 08:10:52;;;;;;;18.42;2.78;;;;;;;8.01;100.00;99589.38;5070889;28;20059;-29
2022/02/14 08:13:22;;;;;;;14.60;2.78;;;;;;;8.03;100.00;99595.44;5071073;28;20154;-31
2022/02/14 08:15:49;;;;;;;13.23;2.25;;;;;;;8.02;100.00;99591.84;5070359;28;20067;-33
2022/02/14 08:18:17;;;;;;;18.92;2.58;;;;;;;8.02;100.00;99602.13;5070830;28;20521;-31
2022/02/14 08:20:45;;;;;;;12.07;1.98;;;;;;;8.04;100.00;99597.09;5070750;28;20040;-30
2022/02/14 08:23:13;;;;;;;15.75;2.47;;;;;;;8.03;100.00;99606.56;5069809;28;20602;-31
2022/02/14 08:25:44;;;;;;;15.88;2.15;;;;;;;8.05;100.00;99610.69;5070977;28;20072;-31
2022/02/14 08:28:12;;;;;;;17.10;2.90;;;;;;;8.09;100.00;99616.44;5070917;28;20509;-30
2022/02/14 08:30:40;;;;;;;11.25;2.28;;;;;;;8.10;100.00;99616.13;5069433;28;20055;-30
2022/02/14 08:33:10;;;;;;;17.88;2.58;;;;;;;8.10;100.00;99626.41;5069587;28;20044;-30
2022/02/14 08:35:38;;;;;;;17.52;2.50;;;;;;;8.14;100.00;99614.38;5070669;28;20067;-31
2022/02/14 08:38:06;;;;;;;14.90;2.28;;;;;;;8.26;100.00;99616.59;5070288;28;20508;-30
2022/02/14 08:40:34;;;;;;;14.80;2.33;;;;;;;8.41;100.00;99627.34;5070849;28;20043;-30
2022/02/14 08:43:04;;;;;;;15.13;2.20;;;;;;;8.55;100.00;99628.13;5069866;28;20056;-30
2022/02/14 08:45:52;;;;;;;13.30;2.33;;;;;;;8.63;100.00;99621.81;5071455;28;20044;-30
2022/02/14 08:48:19;;;;;;;14.73;2.70;;;;;;;8.70;100.00;99626.09;5074986;28;20491;-30
2022/02/14 08:50:49;;;;;;;16.52;2.22;;;;;;;8.72;100.00;99624.66;5074303;28;20136;-30
2022/02/14 08:53:18;;;;;;;16.95;2.65;;;;;;;8.74;100.00;99624.34;5074909;28;20079;-30
2022/02/14 08:55:46;;;;;;;17.27;2.80;;;;;;;8.73;100.00;99617.13;5074620;28;20441;-29
2022/02/14 08:58:15;;;;;;;16.23;2.50;;;;;;;8.77;100.00;99624.53;5073994;28;20127;-31
2022/02/14 09:00:43;;;;;;;16.20;3.15;;;;;;;8.74;100.00;99638.25;5074459;28;20106;-31
2022/02/14 09:03:11;;;;;;;16.42;2.35;;;;;;;8.72;100.00;99632.16;5074588;28;20047;-30
2022/02/14 09:05:39;;;;;;;17.73;2.47;;;;;;;8.73;100.00;99636.59;5073804;28;20076;-30
2022/02/14 09:08:07;;;;;;;12.50;2.58;;;;;;;8.72;100.00;99643.31;5074463;28;20048;-31
2022/02/14 09:10:36;;;;;;;15.43;2.08;;;;;;;8.69;100.00;99655.06;5074682;28;20396;-30
2022/02/14 09:13:04;;;;;;;17.73;2.50;;;;;;;8.69;100.00;99655.06;5073474;28;20409;-29
2022/02/14 09:15:38;;;;;;;16.42;1.85;;;;;;;8.70;100.00;99653.91;5074909;28;20040;-31
2022/02/14 09:18:06;;;;;;;18.25;2.40;;;;;;;8.70;100.00;99662.25;5073413;28;20048;-30
2022/02/14 09:20:35;;;;;;;13.10;2.00;;;;;;;8.76;100.00;99656.25;5074240;28;20053;-28
2022/02/14 09:23:03;;;;;;;17.30;2.40;;;;;;;8.82;100.00;99665.28;5074399;28;20098;-30
2022/02/14 09:25:31;;;;;;;15.57;2.00;;;;;;;8.83;100.00;99655.78;5071991;28;20057;-30
2022/02/14 09:28:00;;;;;;;14.05;2.13;;;;;;;8.84;100.00;99674.13;5074163;28;20055;-30
2022/02/14 09:30:31;;;;;;;19.48;2.25;;;;;;;8.85;100.00;99682.16;5074066;28;20483;-31
2022/02/14 09:33:00;;;;;;;16.77;2.20;;;;;;;8.83;100.00;99672.47;5073326;28;20056;-30
2022/02/14 09:35:28;;;;;;;20.02;2.67;;;;;;;8.80;100.00;99675.91;5073984;28;20052;-29
2022/02/14 09:37:57;;;;;;;15.57;2.22;;;;;;;8.80;100.00;99678.69;5073699;28;20084;-30
2022/02/14 09:40:26;;;;;;;13.95;1.95;;;;;;;8.78;100.00;99667.91;5073237;28;20053;-29
2022/02/14 09:43:09;;;;;;;13.07;2.55;;;;;;;8.72;100.00;99671.94;5065039;28;20045;-32
2022/02/14 09:45:38;;;;;;;16.70;2.38;;;;;;;8.74;100.00;99671.63;5073925;28;20416;-34
2022/02/14 09:48:10;;;;;;;17.05;2.20;;;;;;;8.78;100.00;99669.84;5073028;28;20055;-32
2022/02/14 09:50:41;;;;;;;21.08;3.00;;;;;;;8.78;100.00;99673.47;5073515;28;20047;-31
2022/02/14 09:53:10;;;;;;;17.05;2.78;;;;;;;8.82;100.00;99676.41;5073441;28;20614;-31
2022/02/14 09:55:44;;;;;;;15.88;2.58;;;;;;;8.81;100.00;99674.75;5073766;28;20051;-31
2022/02/14 09:58:12;;;;;;;14.85;2.60;;;;;;;8.80;100.00;99684.25;5071518;28;20068;-29
2022/02/14 10:00:40;;;;;;;16.77;2.40;;;;;;;8.75;100.00;99682.44;5072571;28;20060;-29
2022/02/14 10:03:14;;;;;;;16.23;3.00;;;;;;;8.76;100.00;99683.25;5073335;28;20401;-29
2022/02/14 10:05:45;;;;;;;19.80;2.85;;;;;;;8.70;100.00;99685.31;5063477;28;20561;-29
2022/02/14 10:08:19;;;;;;;22.20;3.20;;;;;;;8.68;100.00;99701.50;5072775;28;20063;-32
2022/02/14 10:10:48;;;;;;;20.08;3.17;;;;;;;8.66;100.00;99694.59;5062508;28;20044;-31
2022/02/14 10:13:32;;;;;;;18.08;2.70;;;;;;;8.61;100.00;99707.50;5072074;28;20044;-30
2022/02/14 10:16:00;;;;;;;16.92;2.80;;;;;;;8.53;100.00;99699.91;5062159;28;20052;-29
2022/02/14 10:18:34;;;;;;;16.48;3.00;;;;;;;8.52;100.00;99716.91;5073343;28;20067;-31
2022/02/14 10:21:22;;;;;;;18.92;2.78;;;;;;;8.45;100.00;99725.66;5063163;28;20490;-31
2022/02/14 10:24:16;;;;;;;20.50;2.92;;;;;;;8.41;100.00;99730.22;5073130;28;20492;-30
2022/02/14 10:26:46;;;;;;;20.73;3.00;;;;;;;8.39;100.00;99729.72;5056162;28;20143;-30
2022/02/14 10:29:17;;;;;;;16.58;3.20;;;;;;;8.43;100.00;99729.91;5072446;28;20044;-30
2022/02/14 10:31:46;;;;;;;11.45;2.22;;;;;;;8.46;100.00;99738.44;5072806;28;20051;-29
2022/02/14 10:34:19;;;;;;;21.38;2.75;;;;;;;8.50;100.00;99744.19;5072923;28;20087;-30
2022/02/14 10:36:49;;;;;;;15.85;2.38;;;;;;;8.50;100.00;99746.97;5072419;28;20047;-30
2022/02/14 10:39:21;;;;;;;14.73;2.65;;;;;;;8.59;100.00;99747.91;5073059;28;20047;-30
2022/02/14 10:41:51;;;;;;;20.83;2.65;;;;;;;8.59;100.00;99757.03;5062003;28;20062;-29
2022/02/14 10:47:11;;;;;;;18.25;2.33;;;;;;;8.52;100.00;99745.53;5062990;28;20048;-29
2022/02/14 10:49:41;;;;;;;11.18;2.00;;;;;;;8.63;100.00;99758.06;5071898;28;20052;-29
2022/02/14 10:52:11;;;;;;;15.43;2.58;;;;;;;8.70;100.00;99760.41;5061735;28;20043;-31
2022/02/14 10:54:42;;;;;;;14.88;2.40;;;;;;;8.75;100.00;99763.09;5072458;28;20044;-30
2022/02/14 10:57:28;;;;;;;14.60;2.35;;;;;;;8.79;100.00;99775.22;5071817;28;20229;-30
2022/02/14 10:59:57;;;;;;;19.70;2.72;;;;;;;8.74;100.00;99777.31;5072710;28;20048;-32
2022/02/14 11:02:25;;;;;;;14.70;2.70;;;;;;;8.73;100.00;99772.88;5072275;28;20431;-31
2022/02/14 11:04:54;;;;;;;15.90;2.75;;;;;;;8.72;100.00;99787.91;5070600;28;20214;-32
2022/02/14 11:07:26;;;;;;;12.60;2.75;;;;;;;8.68;100.00;99787.72;5072176;28;20493;-29
2022/02/14 11:09:57;;;;;;;14.73;2.47;;;;;;;8.68;100.00;99775.78;5071322;28;20476;-30
2022/02/14 11:12:29;;;;;;;15.18;2.78;;;;;;;8.68;100.00;99782.16;5071556;28;20535;-29
2022/02/14 11:14:58;;;;;;;15.13;2.45;;;;;;;8.69;100.00;99794.09;5061786;28;20436;-29
2022/02/14 11:17:29;;;;;;;14.70;2.10;;;;;;;8.68;100.00;99792.44;5071276;28;20102;-29
2022/02/14 11:20:00;;;;;;;18.83;3.15;;;;;;;8.69;100.00;99794.09;5071780;28;20049;-30
2022/02/14 11:22:30;;;;;;;16.90;2.28;;;;;;;8.68;100.00;99792.44;5071862;28;20047;-31
2022/02/14 11:25:13;;;;;;;15.65;2.50;;;;;;;8.74;100.00;99791.22;5071463;28;20162;-30
2022/02/14 11:27:48;;;;;;;17.00;2.33;;;;;;;8.89;100.00;99804.75;5069782;28;20045;-31
2022/02/14 11:30:17;;;;;;;16.63;2.40;;;;;;;9.04;100.00;99790.47;5071793;28;20060;-29
2022/02/14 11:33:04;;;;;;;15.50;2.67;;;;;;;9.12;100.00;99795.31;5071059;28;20072;-30
2022/02/14 11:35:34;;;;;;;17.15;2.67;;;;;;;9.19;100.00;99792.88;5072129;28;20040;-30
2022/02/14 11:38:01;;;;;;;15.40;2.88;;;;;;;9.25;100.00;99797.19;5071118;28;20045;-29